createdAt,value
2016-05-08T00:00:57.885Z,0
2016-05-08T00:01:57.949Z,0
2016-05-08T00:02:57.968Z,0
2016-05-08T00:03:58.174Z,0
2016-05-08T00:04:58.208Z,0
2016-05-08T00:05:58.257Z,0
2016-05-08T00:06:58.135Z,0
2016-05-08T00:07:58.357Z,0
2016-05-08T00:08:58.406Z,0
2016-05-08T00:09:58.471Z,0
2016-05-08T00:10:58.349Z,0
2016-05-08T00:11:58.508Z,0
2016-05-08T00:12:58.464Z,0
2016-05-08T00:13:58.592Z,0
2016-05-08T00:14:58.625Z,0
2016-05-08T00:15:58.690Z,0
2016-05-08T00:16:58.772Z,0
2016-05-08T00:17:58.743Z,0
2016-05-08T00:18:58.792Z,0
2016-05-08T00:19:58.873Z,0
2016-05-08T00:20:58.907Z,0
2016-05-08T00:21:58.753Z,0
2016-05-08T00:22:58.804Z,0
2016-05-08T00:23:58.869Z,0
2016-05-08T00:24:59.050Z,0
2016-05-08T00:25:59.099Z,0
2016-05-08T00:26:58.962Z,0
2016-05-08T00:27:59.401Z,0
2016-05-08T00:28:59.202Z,0
2016-05-08T00:29:59.095Z,0
2016-05-08T00:30:59.316Z,0
2016-05-08T00:31:59.179Z,0
2016-05-08T00:32:59.368Z,0
2016-05-08T00:33:59.261Z,0
2016-05-08T00:34:59.514Z,0
2016-05-08T00:35:59.517Z,0
2016-05-08T00:36:59.536Z,0
2016-05-08T00:37:59.429Z,0
2016-05-08T00:38:59.666Z,0
2016-05-08T00:39:59.653Z,0
2016-05-08T00:40:59.546Z,0
2016-05-08T00:41:59.767Z,0
2016-05-08T00:43:00.770Z,0
2016-05-08T00:43:59.680Z,0
2016-05-08T00:44:59.869Z,0
2016-05-08T00:45:59.778Z,0
2016-05-08T00:46:59.953Z,0
2016-05-08T00:48:00.019Z,0
2016-05-08T00:48:59.880Z,0
2016-05-08T00:50:00.071Z,0
2016-05-08T00:51:00.119Z,0
2016-05-08T00:52:00.154Z,0
2016-05-08T00:53:00.234Z,0
2016-05-08T00:54:00.097Z,0
2016-05-08T00:55:00.271Z,0
2016-05-08T00:56:00.180Z,0
2016-05-08T00:57:00.401Z,0
2016-05-08T00:58:00.607Z,0
2016-05-08T00:59:00.453Z,0
2016-05-08T01:00:00.535Z,0
2016-05-08T01:01:00.569Z,0
2016-05-08T01:02:00.556Z,0
2016-05-08T01:03:00.433Z,0
2016-05-08T01:04:00.640Z,0
2016-05-08T01:05:00.392Z,0
2016-05-08T01:06:00.567Z,0
2016-05-08T01:07:00.835Z,0
2016-05-08T01:08:00.665Z,0
2016-05-08T01:09:00.839Z,0
2016-05-08T01:10:00.889Z,0
2016-05-08T01:11:00.783Z,0
2016-05-08T01:12:01.005Z,0
2016-05-08T01:13:01.195Z,0
2016-05-08T01:14:01.088Z,0
2016-05-08T01:15:01.106Z,0
2016-05-08T01:16:01.000Z,0
2016-05-08T01:17:01.190Z,0
2016-05-08T01:18:01.083Z,0
2016-05-08T01:19:01.305Z,0
2016-05-08T01:20:01.135Z,0
2016-05-08T01:21:01.263Z,0
2016-05-08T01:22:01.375Z,0
2016-05-08T01:23:01.425Z,0
2016-05-08T01:24:01.458Z,0
2016-05-08T01:25:01.353Z,0
2016-05-08T01:26:01.543Z,0
2016-05-08T01:27:01.467Z,0
2016-05-08T01:28:01.719Z,0
2016-05-08T01:29:01.723Z,0
2016-05-08T01:30:01.725Z,0
2016-05-08T01:31:01.728Z,0
2016-05-08T01:32:01.793Z,0
2016-05-08T01:33:01.844Z,0
2016-05-08T01:34:01.877Z,0
2016-05-08T01:35:01.739Z,0
2016-05-08T01:36:01.945Z,0
2016-05-08T01:37:02.026Z,0
2016-05-08T01:38:01.543Z,0
2016-05-08T01:39:02.063Z,0
2016-05-08T01:40:02.112Z,0
2016-05-08T01:41:01.990Z,0
2016-05-08T01:42:02.179Z,0
2016-05-08T01:43:02.542Z,0
2016-05-08T01:44:02.295Z,0
2016-05-08T01:45:02.204Z,0
2016-05-08T01:46:02.362Z,0
2016-05-08T01:47:02.381Z,0
2016-05-08T01:48:02.337Z,0
2016-05-08T01:49:02.464Z,0
2016-05-08T01:50:02.529Z,0
2016-05-08T01:51:02.642Z,0
2016-05-08T01:52:02.597Z,0
2016-05-08T01:53:02.678Z,0
2016-05-08T01:54:02.681Z,0
2016-05-08T01:55:02.606Z,0
2016-05-08T01:56:02.764Z,0
2016-05-08T01:57:02.798Z,0
2016-05-08T01:58:03.347Z,0
2016-05-08T01:59:02.882Z,0
2016-05-08T02:00:02.916Z,0
2016-05-08T02:01:02.966Z,0
2016-05-08T02:02:03.047Z,0
2016-05-08T02:03:03.080Z,0
2016-05-08T02:04:02.926Z,0
2016-05-08T02:05:03.116Z,0
2016-05-08T02:06:03.166Z,0
2016-05-08T02:07:03.200Z,0
2016-05-08T02:08:03.235Z,0
2016-05-08T02:09:03.159Z,0
2016-05-08T02:10:03.192Z,0
2016-05-08T02:11:03.352Z,0
2016-05-08T02:12:03.246Z,0
2016-05-08T02:13:03.904Z,0
2016-05-08T02:14:03.344Z,0
2016-05-08T02:15:03.518Z,0
2016-05-08T02:16:03.553Z,0
2016-05-08T02:17:03.461Z,0
2016-05-08T02:18:03.637Z,0
2016-05-08T02:19:03.373Z,0
2016-05-08T02:20:03.407Z,0
2016-05-08T02:21:03.816Z,0
2016-05-08T02:22:03.803Z,0
2016-05-08T02:23:03.525Z,0
2016-05-08T02:24:03.903Z,0
2016-05-08T02:25:03.936Z,0
2016-05-08T02:26:03.970Z,0
2016-05-08T02:27:03.988Z,0
2016-05-08T02:28:03.803Z,0
2016-05-08T02:29:04.072Z,0
2016-05-08T02:30:04.122Z,0
2016-05-08T02:31:04.171Z,0
2016-05-08T02:32:04.205Z,0
2016-05-08T02:33:04.270Z,0
2016-05-08T02:34:04.304Z,0
2016-05-08T02:35:04.369Z,0
2016-05-08T02:36:04.388Z,0
2016-05-08T02:37:04.405Z,0
2016-05-08T02:38:04.455Z,0
2016-05-08T02:39:04.490Z,0
2016-05-08T02:40:04.523Z,0
2016-05-08T02:41:04.401Z,0
2016-05-08T02:42:04.671Z,0
2016-05-08T02:43:04.720Z,0
2016-05-08T02:44:04.817Z,0
2016-05-08T02:45:04.899Z,0
2016-05-08T02:46:04.887Z,0
2016-05-08T02:47:05.042Z,0
2016-05-08T02:48:05.094Z,0
2016-05-08T02:49:04.847Z,0
2016-05-08T02:50:05.227Z,0
2016-05-08T02:51:05.278Z,0
2016-05-08T02:52:05.337Z,4
2016-05-08T02:53:05.408Z,4
2016-05-08T02:54:05.293Z,0
2016-05-08T02:55:05.317Z,0
2016-05-08T02:56:05.388Z,4
2016-05-08T02:57:05.441Z,0
2016-05-08T02:58:05.665Z,4
2016-05-08T02:59:05.639Z,4
2016-05-08T03:00:05.691Z,8
2016-05-08T03:01:05.415Z,8
2016-05-08T03:02:05.762Z,8
2016-05-08T03:03:05.640Z,8
2016-05-08T03:04:05.846Z,12
2016-05-08T03:05:05.788Z,12
2016-05-08T03:06:05.948Z,12
2016-05-08T03:07:05.998Z,20
2016-05-08T03:08:06.032Z,20
2016-05-08T03:09:05.910Z,24
2016-05-08T03:10:06.101Z,28
2016-05-08T03:11:06.213Z,32
2016-05-08T03:12:06.185Z,36
2016-05-08T03:13:06.204Z,44
2016-05-08T03:14:06.096Z,48
2016-05-08T03:15:06.349Z,52
2016-05-08T03:16:06.320Z,64
2016-05-08T03:17:06.371Z,72
2016-05-08T03:18:06.248Z,80
2016-05-08T03:19:06.329Z,92
2016-05-08T03:20:06.315Z,100
2016-05-08T03:21:06.522Z,112
2016-05-08T03:22:06.587Z,128
2016-05-08T03:23:06.606Z,140
2016-05-08T03:24:06.639Z,156
2016-05-08T03:25:06.704Z,176
2016-05-08T03:26:06.628Z,192
2016-05-08T03:27:06.757Z,208
2016-05-08T03:28:06.650Z,228
2016-05-08T03:29:06.840Z,248
2016-05-08T03:30:06.936Z,272
2016-05-08T03:31:06.768Z,292
2016-05-08T03:32:06.800Z,316
2016-05-08T03:33:07.023Z,344
2016-05-08T03:34:07.041Z,368
2016-05-08T03:35:06.918Z,392
2016-05-08T03:36:07.125Z,420
2016-05-08T03:37:07.205Z,444
2016-05-08T03:38:07.255Z,476
2016-05-08T03:39:07.241Z,504
2016-05-08T03:40:07.307Z,532
2016-05-08T03:41:07.325Z,564
2016-05-08T03:42:07.202Z,596
2016-05-08T03:43:07.269Z,624
2016-05-08T03:44:07.474Z,660
2016-05-08T03:45:07.477Z,692
2016-05-08T03:46:07.354Z,724
2016-05-08T03:47:07.560Z,752
2016-05-08T03:48:07.594Z,784
2016-05-08T03:49:07.629Z,820
2016-05-08T03:50:07.521Z,848
2016-05-08T03:51:07.587Z,884
2016-05-08T03:52:07.683Z,912
2016-05-08T03:53:07.826Z,948
2016-05-08T03:54:07.829Z,980
2016-05-08T03:55:07.942Z,1008
2016-05-08T03:56:07.912Z,1040
2016-05-08T03:57:07.790Z,1076
2016-05-08T03:58:08.262Z,1104
2016-05-08T03:59:08.077Z,1136
2016-05-08T04:00:08.080Z,1168
2016-05-08T04:01:08.145Z,1196
2016-05-08T04:02:08.023Z,1228
2016-05-08T04:03:08.197Z,1256
2016-05-08T04:04:08.075Z,1288
2016-05-08T04:05:08.155Z,1316
2016-05-08T04:06:08.174Z,1348
2016-05-08T04:07:08.349Z,1372
2016-05-08T04:08:08.242Z,1400
2016-05-08T04:09:08.432Z,1432
2016-05-08T04:10:08.372Z,1456
2016-05-08T04:11:08.360Z,1484
2016-05-08T04:12:08.581Z,1512
2016-05-08T04:13:08.443Z,1536
2016-05-08T04:14:08.477Z,1568
2016-05-08T04:15:08.526Z,1588
2016-05-08T04:16:08.732Z,1616
2016-05-08T04:17:08.751Z,1640
2016-05-08T04:18:08.629Z,1668
2016-05-08T04:19:08.677Z,1692
2016-05-08T04:20:14.305Z,1712
2016-05-08T04:21:08.902Z,1740
2016-05-08T04:22:08.796Z,1760
2016-05-08T04:23:09.001Z,1784
2016-05-08T04:24:09.019Z,1804
2016-05-08T04:25:09.068Z,1828
2016-05-08T04:26:09.118Z,1852
2016-05-08T04:27:09.184Z,1872
2016-05-08T04:28:09.202Z,1888
2016-05-08T04:29:09.236Z,1912
2016-05-08T04:30:09.269Z,1932
2016-05-08T04:31:09.334Z,1952
2016-05-08T04:32:09.354Z,1972
2016-05-08T04:33:09.247Z,1992
2016-05-08T04:34:09.421Z,2008
2016-05-08T04:35:09.470Z,2028
2016-05-08T04:36:09.488Z,2044
2016-05-08T04:37:09.258Z,2064
2016-05-08T04:38:09.572Z,2084
2016-05-08T04:39:09.622Z,2100
2016-05-08T04:40:09.671Z,2116
2016-05-08T04:41:09.737Z,2132
2016-05-08T04:42:09.739Z,2152
2016-05-08T04:43:10.163Z,2168
2016-05-08T04:44:09.838Z,2184
2016-05-08T04:45:09.858Z,2196
2016-05-08T04:46:09.734Z,2216
2016-05-08T04:47:09.613Z,2232
2016-05-08T04:48:09.990Z,2248
2016-05-08T04:49:09.726Z,2264
2016-05-08T04:50:10.073Z,2280
2016-05-08T04:51:10.108Z,2296
2016-05-08T04:52:10.204Z,2308
2016-05-08T04:53:10.019Z,2324
2016-05-08T04:54:10.225Z,2336
2016-05-08T04:55:10.274Z,2348
2016-05-08T04:56:10.151Z,2368
2016-05-08T04:57:10.359Z,2380
2016-05-08T04:58:10.595Z,2392
2016-05-08T04:59:10.456Z,2408
2016-05-08T05:00:10.459Z,2420
2016-05-08T05:01:10.494Z,2432
2016-05-08T05:02:10.543Z,2444
2016-05-08T05:03:10.421Z,2456
2016-05-08T05:04:10.611Z,2468
2016-05-08T05:05:10.676Z,2480
2016-05-08T05:06:10.741Z,2496
2016-05-08T05:07:10.572Z,2508
2016-05-08T05:08:10.778Z,2520
2016-05-08T05:09:10.687Z,2532
2016-05-08T05:10:10.861Z,2544
2016-05-08T05:11:10.896Z,2556
2016-05-08T05:12:10.945Z,2568
2016-05-08T05:13:11.041Z,2580
2016-05-08T05:14:11.029Z,2588
2016-05-08T05:15:10.922Z,2596
2016-05-08T05:16:11.112Z,2608
2016-05-08T05:17:11.193Z,2620
2016-05-08T05:18:11.165Z,2632
2016-05-08T05:19:11.213Z,2644
2016-05-08T05:20:11.248Z,2652
2016-05-08T05:21:11.157Z,2664
2016-05-08T05:22:11.176Z,2676
2016-05-08T05:23:11.381Z,2688
2016-05-08T05:24:11.290Z,2696
2016-05-08T05:25:11.480Z,2704
2016-05-08T05:26:11.343Z,2720
2016-05-08T05:27:11.532Z,2728
2016-05-08T05:28:11.738Z,2740
2016-05-08T05:29:11.615Z,2752
2016-05-08T05:30:11.493Z,2764
2016-05-08T05:31:11.731Z,2780
2016-05-08T05:32:11.765Z,2788
2016-05-08T05:33:11.783Z,2800
2016-05-08T05:34:11.817Z,2808
2016-05-08T05:35:11.742Z,2820
2016-05-08T05:36:11.917Z,2828
2016-05-08T05:37:11.809Z,2840
2016-05-08T05:38:11.983Z,2852
2016-05-08T05:39:12.049Z,2860
2016-05-08T05:40:11.770Z,2868
2016-05-08T05:41:11.945Z,2880
2016-05-08T05:42:12.011Z,2888
2016-05-08T05:43:12.263Z,2896
2016-05-08T05:44:12.218Z,2904
2016-05-08T05:45:12.268Z,2912
2016-05-08T05:46:12.209Z,2920
2016-05-08T05:47:12.383Z,2932
2016-05-08T05:48:12.261Z,2936
2016-05-08T05:49:12.435Z,2948
2016-05-08T05:50:12.485Z,2960
2016-05-08T05:51:12.518Z,2968
2016-05-08T05:52:12.428Z,2976
2016-05-08T05:53:12.587Z,2988
2016-05-08T05:54:12.496Z,3000
2016-05-08T05:55:12.545Z,3012
2016-05-08T05:56:12.563Z,3024
2016-05-08T05:57:12.472Z,3028
2016-05-08T05:58:12.818Z,3036
2016-05-08T05:59:12.837Z,3044
2016-05-08T06:00:12.887Z,3052
2016-05-08T06:01:12.998Z,3056
2016-05-08T06:02:12.970Z,3064
2016-05-08T06:03:12.848Z,3068
2016-05-08T06:04:13.054Z,3080
2016-05-08T06:05:13.104Z,3084
2016-05-08T06:06:13.122Z,3088
2016-05-08T06:07:13.155Z,3100
2016-05-08T06:08:13.267Z,3100
2016-05-08T06:09:13.270Z,3108
2016-05-08T06:10:13.132Z,3116
2016-05-08T06:11:13.323Z,3128
2016-05-08T06:12:13.356Z,3136
2016-05-08T06:13:13.656Z,3148
2016-05-08T06:14:13.456Z,3156
2016-05-08T06:15:13.364Z,3164
2016-05-08T06:16:13.555Z,3180
2016-05-08T06:17:13.573Z,3196
2016-05-08T06:18:13.622Z,3208
2016-05-08T06:19:13.547Z,3220
2016-05-08T06:20:13.394Z,3228
2016-05-08T06:21:13.740Z,3236
2016-05-08T06:22:13.790Z,3240
2016-05-08T06:23:13.870Z,3244
2016-05-08T06:24:13.857Z,3256
2016-05-08T06:25:13.907Z,3260
2016-05-08T06:26:13.956Z,3272
2016-05-08T06:27:13.851Z,3280
2016-05-08T06:28:14.071Z,3300
2016-05-08T06:29:13.918Z,3312
2016-05-08T06:30:14.108Z,3316
2016-05-08T06:31:14.189Z,3320
2016-05-08T06:32:14.192Z,3332
2016-05-08T06:33:14.256Z,3336
2016-05-08T06:34:14.290Z,3340
2016-05-08T06:35:14.168Z,3352
2016-05-08T06:36:14.375Z,3360
2016-05-08T06:37:14.408Z,3364
2016-05-08T06:38:14.145Z,3376
2016-05-08T06:39:14.507Z,3388
2016-05-08T06:40:14.525Z,3396
2016-05-08T06:41:14.622Z,3412
2016-05-08T06:42:14.641Z,3420
2016-05-08T06:43:14.847Z,3432
2016-05-08T06:44:14.692Z,3432
2016-05-08T06:45:14.758Z,3432
2016-05-08T06:46:14.777Z,3444
2016-05-08T06:47:14.810Z,3452
2016-05-08T06:48:14.594Z,3460
2016-05-08T06:49:14.613Z,3464
2016-05-08T06:50:14.943Z,3472
2016-05-08T06:51:14.993Z,3480
2016-05-08T06:52:14.558Z,3480
2016-05-08T06:53:14.952Z,3484
2016-05-08T06:54:15.110Z,3488
2016-05-08T06:55:15.176Z,3492
2016-05-08T06:56:15.209Z,3508
2016-05-08T06:57:15.118Z,3520
2016-05-08T06:58:15.120Z,3540
2016-05-08T06:59:15.014Z,3540
2016-05-08T07:00:15.048Z,3540
2016-05-08T07:01:15.410Z,3544
2016-05-08T07:02:15.460Z,3552
2016-05-08T07:03:15.525Z,3572
2016-05-08T07:04:15.528Z,3580
2016-05-08T07:05:15.562Z,3580
2016-05-08T07:06:15.626Z,3576
2016-05-08T07:07:15.692Z,3572
2016-05-08T07:08:15.710Z,3588
2016-05-08T07:09:15.744Z,3572
2016-05-08T07:10:15.809Z,3584
2016-05-08T07:11:15.827Z,3608
2016-05-08T07:12:15.721Z,3624
2016-05-08T07:13:16.161Z,3644
2016-05-08T07:14:15.977Z,3672
2016-05-08T07:15:16.011Z,3696
2016-05-08T07:16:16.028Z,3724
2016-05-08T07:17:16.141Z,3744
2016-05-08T07:18:15.955Z,3756
2016-05-08T07:19:16.177Z,3776
2016-05-08T07:20:16.211Z,3792
2016-05-08T07:21:16.291Z,3800
2016-05-08T07:22:16.170Z,3808
2016-05-08T07:23:16.329Z,3812
2016-05-08T07:24:16.207Z,3836
2016-05-08T07:25:16.288Z,3852
2016-05-08T07:26:16.446Z,3856
2016-05-08T07:27:16.527Z,3872
2016-05-08T07:28:16.296Z,3892
2016-05-08T07:29:16.470Z,3912
2016-05-08T07:30:16.612Z,3932
2016-05-08T07:31:16.694Z,3936
2016-05-08T07:32:16.728Z,3944
2016-05-08T07:33:16.746Z,3948
2016-05-08T07:34:16.640Z,3972
2016-05-08T07:35:16.892Z,3984
2016-05-08T07:36:16.911Z,3976
2016-05-08T07:37:16.773Z,4012
2016-05-08T07:38:16.823Z,4044
2016-05-08T07:39:16.903Z,4064
2016-05-08T07:40:17.030Z,4064
2016-05-08T07:41:16.956Z,4080
2016-05-08T07:42:17.130Z,4084
2016-05-08T07:43:17.242Z,4088
2016-05-08T07:44:17.057Z,4100
2016-05-08T07:45:17.263Z,4108
2016-05-08T07:46:17.313Z,4120
2016-05-08T07:47:17.206Z,4128
2016-05-08T07:48:17.396Z,4152
2016-05-08T07:49:17.413Z,4096
2016-05-08T07:50:17.510Z,4168
2016-05-08T07:51:17.544Z,4196
2016-05-08T07:52:17.235Z,4216
2016-05-08T07:53:17.644Z,4228
2016-05-08T07:54:17.662Z,4240
2016-05-08T07:55:17.727Z,4280
2016-05-08T07:56:17.730Z,4292
2016-05-08T07:57:17.842Z,4308
2016-05-08T07:58:18.548Z,4340
2016-05-08T07:59:17.707Z,4368
2016-05-08T08:00:17.959Z,4396
2016-05-08T08:01:17.978Z,4448
2016-05-08T08:02:17.684Z,4484
2016-05-08T08:03:18.029Z,4524
2016-05-08T08:04:18.064Z,4592
2016-05-08T08:05:17.957Z,4668
2016-05-08T08:06:18.148Z,4652
2016-05-08T08:07:18.212Z,4644
2016-05-08T08:08:18.231Z,4672
2016-05-08T08:09:18.281Z,4680
2016-05-08T08:10:18.361Z,4676
2016-05-08T08:11:18.239Z,4688
2016-05-08T08:12:18.445Z,4712
2016-05-08T08:13:18.494Z,4716
2016-05-08T08:14:18.513Z,4708
2016-05-08T08:15:18.594Z,4732
2016-05-08T08:16:18.440Z,4732
2016-05-08T08:17:18.474Z,4744
2016-05-08T08:18:18.383Z,4776
2016-05-08T08:19:18.714Z,4796
2016-05-08T08:20:18.763Z,4792
2016-05-08T08:21:18.828Z,4804
2016-05-08T08:22:18.847Z,4816
2016-05-08T08:23:18.740Z,4840
2016-05-08T08:24:18.946Z,4876
2016-05-08T08:25:19.011Z,4924
2016-05-08T08:26:18.904Z,4936
2016-05-08T08:27:19.063Z,4924
2016-05-08T08:28:19.113Z,4964
2016-05-08T08:29:19.210Z,4980
2016-05-08T08:30:19.196Z,5008
2016-05-08T08:31:19.230Z,5032
2016-05-08T08:32:19.280Z,5068
2016-05-08T08:33:19.345Z,5100
2016-05-08T08:34:19.379Z,5120
2016-05-08T08:35:19.272Z,5124
2016-05-08T08:36:19.462Z,5124
2016-05-08T08:37:19.340Z,5176
2016-05-08T08:38:19.546Z,5228
2016-05-08T08:39:19.408Z,5280
2016-05-08T08:40:19.645Z,5328
2016-05-08T08:41:19.664Z,5356
2016-05-08T08:42:19.714Z,5368
2016-05-08T08:43:19.637Z,5388
2016-05-08T08:44:19.796Z,5416
2016-05-08T08:45:19.689Z,5484
2016-05-08T08:46:19.927Z,5512
2016-05-08T08:47:19.945Z,5484
2016-05-08T08:48:19.979Z,5524
2016-05-08T08:49:20.013Z,5544
2016-05-08T08:50:20.047Z,5524
2016-05-08T08:51:20.097Z,5580
2016-05-08T08:52:20.130Z,5584
2016-05-08T08:53:20.196Z,5600
2016-05-08T08:54:20.229Z,5688
2016-05-08T08:55:19.982Z,5748
2016-05-08T08:56:20.329Z,5840
2016-05-08T08:57:20.378Z,5888
2016-05-08T08:58:20.100Z,5968
2016-05-08T08:59:20.430Z,6080
2016-05-08T09:00:20.496Z,6144
2016-05-08T09:01:20.561Z,6176
2016-05-08T09:02:20.595Z,6140
2016-05-08T09:03:20.613Z,6168
2016-05-08T09:04:20.381Z,6208
2016-05-08T09:05:20.696Z,6224
2016-05-08T09:06:20.731Z,6324
2016-05-08T09:07:20.795Z,6388
2016-05-08T09:08:20.877Z,6536
2016-05-08T09:09:20.879Z,6716
2016-05-08T09:10:20.913Z,6816
2016-05-08T09:11:21.026Z,6848
2016-05-08T09:12:21.012Z,6904
2016-05-08T09:13:20.593Z,6984
2016-05-08T09:14:21.095Z,6976
2016-05-08T09:15:21.177Z,6828
2016-05-08T09:16:20.914Z,6796
2016-05-08T09:17:21.228Z,7640
2016-05-08T09:18:21.310Z,8440
2016-05-08T09:19:21.312Z,8616
2016-05-08T09:20:21.378Z,7960
2016-05-08T09:21:21.256Z,7472
2016-05-08T09:22:21.461Z,7328
2016-05-08T09:23:21.355Z,7368
2016-05-08T09:24:21.529Z,7468
2016-05-08T09:25:21.610Z,7700
2016-05-08T09:26:21.488Z,8056
2016-05-08T09:27:21.662Z,8196
2016-05-08T09:28:21.727Z,8440
2016-05-08T09:29:21.808Z,8932
2016-05-08T09:30:21.811Z,9760
2016-05-08T09:31:21.845Z,10012
2016-05-08T09:32:21.910Z,9824
2016-05-08T09:33:21.771Z,9344
2016-05-08T09:34:21.963Z,8904
2016-05-08T09:35:22.027Z,8860
2016-05-08T09:36:22.061Z,8908
2016-05-08T09:37:22.111Z,8896
2016-05-08T09:38:22.176Z,9028
2016-05-08T09:39:22.210Z,9480
2016-05-08T09:40:22.322Z,9900
2016-05-08T09:41:22.059Z,9420
2016-05-08T09:42:22.171Z,9020
2016-05-08T09:43:22.392Z,9120
2016-05-08T09:44:22.426Z,9352
2016-05-08T09:45:22.460Z,9080
2016-05-08T09:46:22.510Z,9016
2016-05-08T09:47:22.623Z,9888
2016-05-08T09:48:22.625Z,9992
2016-05-08T09:49:22.659Z,9636
2016-05-08T09:50:22.724Z,9812
2016-05-08T09:51:22.742Z,10520
2016-05-08T09:52:22.777Z,11184
2016-05-08T09:53:22.685Z,11268
2016-05-08T09:54:22.782Z,11216
2016-05-08T09:55:22.784Z,10960
2016-05-08T09:56:22.959Z,10276
2016-05-08T09:57:23.071Z,10216
2016-05-08T09:58:23.449Z,9984
2016-05-08T09:59:22.936Z,9632
2016-05-08T10:00:23.157Z,9592
2016-05-08T10:01:23.191Z,10248
2016-05-08T10:02:23.240Z,11188
2016-05-08T10:03:23.290Z,13068
2016-05-08T10:04:23.355Z,13556
2016-05-08T10:05:23.390Z,14100
2016-05-08T10:06:23.267Z,15216
2016-05-08T10:07:23.457Z,27296
2016-05-08T10:08:23.413Z,64320
2016-05-08T10:09:23.103Z,99008
2016-05-08T10:10:23.606Z,30144
2016-05-08T10:11:23.514Z,17484
2016-05-08T10:12:23.736Z,22048
2016-05-08T10:13:23.615Z,94560
2016-05-08T10:14:23.631Z,99072
2016-05-08T10:15:23.870Z,30208
2016-05-08T10:16:23.887Z,34720
2016-05-08T10:17:23.797Z,117696
2016-05-08T10:18:23.972Z,115392
2016-05-08T10:19:23.567Z,108768
2016-05-08T10:20:24.070Z,99424
2016-05-08T10:21:24.120Z,92896
2016-05-08T10:22:24.200Z,90848
2016-05-08T10:23:24.644Z,90400
2016-05-08T10:24:24.280Z,96608
2016-05-08T10:25:24.329Z,107648
2016-05-08T10:26:24.425Z,112800
2016-05-08T10:27:24.444Z,117120
2016-05-08T10:28:24.711Z,116032
2016-05-08T10:29:24.574Z,54464
2016-05-08T10:30:24.655Z,109856
2016-05-08T10:31:24.674Z,112128
2016-05-08T10:32:24.551Z,110112
2016-05-08T10:33:24.835Z,112608
2016-05-08T10:34:37.650Z,120224
2016-05-08T10:35:24.887Z,103232
2016-05-08T10:36:25.015Z,35552
2016-05-08T10:37:25.032Z,51520
2016-05-08T10:38:25.082Z,48736
2016-05-08T10:39:25.132Z,24160
2016-05-08T10:40:25.228Z,20832
2016-05-08T10:41:25.246Z,21888
2016-05-08T10:42:25.296Z,30688
2016-05-08T10:43:25.674Z,30112
2016-05-08T10:44:25.411Z,60160
2016-05-08T10:45:25.461Z,103744
2016-05-08T10:46:25.510Z,104512
2016-05-08T10:47:25.576Z,103232
2016-05-08T10:48:25.625Z,104704
2016-05-08T10:49:25.690Z,113248
2016-05-08T10:50:25.803Z,14400
2016-05-08T10:51:25.821Z,14472
2016-05-08T10:52:25.698Z,16868
2016-05-08T10:53:25.951Z,24128
2016-05-08T10:54:25.860Z,23648
2016-05-08T10:55:25.925Z,78336
2016-05-08T10:56:25.928Z,115744
2016-05-08T10:57:26.197Z,24704
2016-05-08T10:58:26.167Z,27008
2016-05-08T10:59:26.108Z,24800
2016-05-08T11:00:26.142Z,20960
2016-05-08T11:01:26.035Z,20480
2016-05-08T11:02:26.413Z,22080
2016-05-08T11:03:26.321Z,19360
2016-05-08T11:04:26.418Z,15872
2016-05-08T11:05:26.420Z,16180
2016-05-08T11:06:26.438Z,17248
2016-05-08T11:07:26.505Z,18208
2016-05-08T11:08:26.616Z,17792
2016-05-08T11:09:26.775Z,17120
2016-05-08T11:10:26.809Z,17216
2016-05-08T11:11:26.906Z,18688
2016-05-08T11:12:26.924Z,33472
2016-05-08T11:13:26.973Z,106720
2016-05-08T11:14:27.070Z,26848
2016-05-08T11:15:27.104Z,30688
2016-05-08T11:16:27.107Z,24032
2016-05-08T11:17:27.173Z,26976
2016-05-08T11:18:27.268Z,39840
2016-05-08T11:19:27.287Z,24544
2016-05-08T11:20:27.320Z,23648
2016-05-08T11:21:27.386Z,22304
2016-05-08T11:22:27.466Z,25664
2016-05-08T11:23:27.469Z,20768
2016-05-08T11:24:27.519Z,16336
2016-05-08T11:25:27.600Z,17600
2016-05-08T11:26:27.633Z,23008
2016-05-08T11:27:27.542Z,155744
2016-05-08T11:28:27.827Z,34304
2016-05-08T11:29:27.797Z,22752
2016-05-08T11:30:27.863Z,145792
2016-05-08T11:31:27.880Z,24192
2016-05-08T11:32:27.931Z,20384
2016-05-08T11:33:28.012Z,140096
2016-05-08T11:34:28.030Z,128032
2016-05-08T11:35:27.924Z,118144
2016-05-08T11:36:28.191Z,117440
2016-05-08T11:37:28.194Z,82048
2016-05-08T11:38:28.088Z,22752
2016-05-08T11:39:27.981Z,56608
2016-05-08T11:40:28.390Z,60064
2016-05-08T11:41:28.268Z,82880
2016-05-08T11:42:28.285Z,27456
2016-05-08T11:43:28.570Z,32384
2016-05-08T11:44:28.463Z,27488
2016-05-08T11:45:28.622Z,99008
2016-05-08T11:46:28.671Z,124896
2016-05-08T11:47:28.798Z,129024
2016-05-08T11:48:28.803Z,29024
2016-05-08T11:49:28.942Z,30080
2016-05-08T11:50:28.861Z,38272
2016-05-08T11:51:29.015Z,134112
2016-05-08T11:52:29.044Z,131808
2016-05-08T11:53:29.271Z,135200
2016-05-08T11:54:29.258Z,136800
2016-05-08T11:55:29.134Z,116960
2016-05-08T11:56:29.511Z,18240
2016-05-08T11:57:29.450Z,21568
2016-05-08T11:58:29.899Z,35616
2016-05-08T11:59:29.719Z,126848
2016-05-08T12:00:29.743Z,41152
2016-05-08T12:01:29.845Z,21824
2016-05-08T12:02:29.884Z,15212
2016-05-08T12:03:29.937Z,13652
2016-05-08T12:04:30.003Z,14068
2016-05-08T12:05:30.055Z,15996
2016-05-08T12:06:30.153Z,20192
2016-05-08T12:07:30.173Z,150784
2016-05-08T12:08:30.270Z,156544
2016-05-08T12:09:30.305Z,152416
2016-05-08T12:10:30.200Z,58688
2016-05-08T12:11:30.469Z,127872
2016-05-08T12:12:30.488Z,114144
2016-05-08T12:13:30.459Z,110112
2016-05-08T12:14:30.602Z,116256
2016-05-08T12:15:30.668Z,132320
2016-05-08T12:16:30.545Z,141280
2016-05-08T12:17:30.767Z,18624
2016-05-08T12:18:30.691Z,35808
2016-05-08T12:19:30.726Z,19776
2016-05-08T12:20:30.948Z,134208
2016-05-08T12:21:31.028Z,23648
2016-05-08T12:22:31.047Z,122240
2016-05-08T12:23:31.127Z,28352
2016-05-08T12:24:31.177Z,67168
2016-05-08T12:25:31.225Z,42432
2016-05-08T12:26:31.260Z,131680
2016-05-08T12:27:31.341Z,32192
2016-05-08T12:28:31.125Z,21024
2016-05-08T12:29:31.283Z,31168
2016-05-08T12:30:31.505Z,19200
2016-05-08T12:31:31.602Z,17408
2016-05-08T12:32:31.619Z,17344
2016-05-08T12:33:31.685Z,123328
2016-05-08T12:34:31.749Z,118496
2016-05-08T12:35:31.769Z,121920
2016-05-08T12:36:31.819Z,125344
2016-05-08T12:37:31.883Z,30368
2016-05-08T12:38:31.824Z,31104
2016-05-08T12:39:31.982Z,48736
2016-05-08T12:40:32.079Z,34304
2016-05-08T12:41:31.957Z,42560
2016-05-08T12:42:32.209Z,118208
2016-05-08T12:43:32.649Z,20000
2016-05-08T12:44:32.137Z,19456
2016-05-08T12:45:32.373Z,16832
2016-05-08T12:46:32.407Z,16052
2016-05-08T12:47:32.285Z,15436
2016-05-08T12:48:32.381Z,16524
2016-05-08T12:49:32.400Z,19520
2016-05-08T12:50:32.621Z,136640
2016-05-08T12:51:32.670Z,30080
2016-05-08T12:52:32.784Z,35520
2016-05-08T12:53:32.755Z,28512
2016-05-08T12:54:32.836Z,29920
2016-05-08T12:55:32.900Z,129056
2016-05-08T12:56:32.950Z,29792
2016-05-08T12:57:32.999Z,134464
2016-05-08T12:58:33.111Z,46944
2016-05-08T12:59:33.130Z,24960
2016-05-08T13:00:32.992Z,79648
2016-05-08T13:01:33.214Z,22368
2016-05-08T13:02:33.279Z,20864
2016-05-08T13:03:33.313Z,15460
2016-05-08T13:04:33.221Z,12680
2016-05-08T13:05:33.427Z,12160
2016-05-08T13:06:33.508Z,12228
2016-05-08T13:07:33.354Z,13116
2016-05-08T13:08:33.279Z,15532
2016-05-08T13:09:33.673Z,106656
2016-05-08T13:10:33.551Z,42336
2016-05-08T13:11:33.584Z,18016
2016-05-08T13:12:33.820Z,17312
2016-05-08T13:13:34.043Z,15604
2016-05-08T13:14:33.904Z,15344
2016-05-08T13:15:33.954Z,13992
2016-05-08T13:16:34.066Z,12768
2016-05-08T13:17:34.070Z,10288
2016-05-08T13:18:33.962Z,9388
2016-05-08T13:19:34.168Z,8968
2016-05-08T13:20:34.217Z,9464
2016-05-08T13:21:34.111Z,10056
2016-05-08T13:22:34.317Z,10920
2016-05-08T13:23:34.069Z,12200
2016-05-08T13:24:34.416Z,13768
2016-05-08T13:25:34.481Z,15284
2016-05-08T13:26:34.546Z,19616
2016-05-08T13:27:34.455Z,17984
2016-05-08T13:28:34.302Z,18784
2016-05-08T13:29:34.742Z,34528
2016-05-08T13:30:34.729Z,23584